Smithfield - 24 Hour Table
Date & TimeSolar
Radiation
(W/m²)
Wind
Speed
(mph)
Wind
Direction
(degrees)
Air
Temperature
(°F)
Relative
Humidity
(%)
Precipitation
(inches)
Max
Wind
Speed
(mph)
2020/09/25 05:00 0 2.8 47 50.2 54 0.00 4.9
2020/09/25 04:00 0 4.1 51 52.7 53 0.00 6.3
2020/09/25 03:00 0 4.1 60 54.3 51 0.00 6.7
2020/09/25 02:00 0 4.2 87 55.8 47 0.00 6.0
2020/09/25 01:00 0 4.0 91 57.0 39 0.00 7.1
2020/09/25 00:00 0 3.6 71 56.2 41 0.00 5.6
2020/09/24 23:00 0 3.4 54 58.9 47 0.00 7.4
2020/09/24 22:00 0 4.4 39 63.5 34 0.00 8.5
2020/09/24 21:00 0 4.2 4 66.5 28 0.00 10.6
2020/09/24 20:00 0 5.8 39 68.8 25 0.00 11.4
2020/09/24 19:00 3 5.3 92 73.3 21 0.00 7.4
2020/09/24 18:00 78 4.1 157 78.3 15 0.00 7.8
2020/09/24 17:00 276 4.9 224 80.9 17 0.00 9.6
2020/09/24 16:00 377 5.8 242 81.2 13 0.00 12.1
2020/09/24 15:00 570 7.5 259 81.6 13 0.00 15.6
2020/09/24 14:00 707 7.3 266 82.1 13 0.00 13.5
2020/09/24 13:00 748 3.6 187 81.8 13 0.00 11.4
2020/09/24 12:00 711 4.9 218 78.3 16 0.00 8.8
2020/09/24 11:00 644 3.5 216 72.1 29 0.00 6.7
2020/09/24 10:00 510 3.4 202 66.6 38 0.00 6.7
2020/09/24 09:00 341 1.9 183 61.1 46 0.00 4.6
2020/09/24 08:00 146 3.1 58 55.9 47 0.00 6.3
2020/09/24 07:00 12 4.0 50 51.9 52 0.00 7.1
2020/09/24 06:00 0 3.5 58 53.1 51 0.00 6.0